Time;durP1;ratioP1;P1;durP2;ratioP2;P2;SDS_P1;SDS_P2;PMS_P1;PMS_P2;Temp;Humidity;BMP_temperature;BMP_pressure;BME280_temperature;BME280_humidity;BME280_pressure;Samples;Min_cycle;Max_cycle;Signal;HPM_P1;HPM_P2
2021/05/26 00:01:23;;;;;;;9.38;4.63;;;;;;;9.66;81.05;101382.50;5136602;27;20031;-41
2021/05/26 00:03:48;;;;;;;11.90;4.85;;;;;;;9.66;81.54;101370.84;5136723;27;20039;-41
2021/05/26 00:06:14;;;;;;;8.03;3.80;;;;;;;9.76;80.73;101373.94;5136553;27;20034;-41
2021/05/26 00:08:39;;;;;;;13.57;5.37;;;;;;;9.78;81.75;101379.97;5136580;27;20028;-41
2021/05/26 00:11:10;;;;;;;13.03;5.50;;;;;;;9.72;81.61;101367.34;5135834;27;20265;-41
2021/05/26 00:13:36;;;;;;;10.63;4.78;;;;;;;9.73;80.75;101369.81;5136576;27;20027;-41
2021/05/26 00:16:02;;;;;;;10.05;5.45;;;;;;;9.76;81.67;101365.84;5136320;27;20031;-41
2021/05/26 00:18:27;;;;;;;13.85;4.85;;;;;;;9.75;81.21;101369.59;5134854;27;20038;-41
2021/05/26 00:20:53;;;;;;;7.73;4.03;;;;;;;9.80;80.76;101362.50;5136159;27;20049;-41
2021/05/26 00:23:19;;;;;;;;;;;;;;;9.84;80.03;101357.50;5136241;27;20745;-41
2021/05/26 00:25:45;;;;;;;10.20;4.13;;;;;;;9.72;81.35;101357.34;5135831;27;20006;-41
2021/05/26 00:28:10;;;;;;;11.87;3.30;;;;;;;9.76;80.64;101349.63;5135467;27;20102;-41
2021/05/26 00:30:43;;;;;;;8.07;3.63;;;;;;;9.68;81.08;101353.41;5135493;27;20121;-41
2021/05/26 00:33:09;;;;;;;9.65;3.53;;;;;;;9.71;81.61;101352.16;5135666;27;20272;-41
2021/05/26 00:35:34;;;;;;;;;;;;;;;9.78;80.47;101344.88;5136036;27;20473;-41
2021/05/26 00:38:00;;;;;;;11.55;3.47;;;;;;;9.72;80.36;101349.25;5135587;27;19907;-39
2021/05/26 00:40:25;;;;;;;11.53;4.00;;;;;;;9.71;81.20;101342.19;5135829;27;20058;-40
2021/05/26 00:42:50;;;;;;;9.20;3.10;;;;;;;9.72;81.68;101337.63;5135184;27;20023;-40
2021/05/26 00:45:17;;;;;;;11.03;3.50;;;;;;;9.68;80.91;101328.28;5136225;27;20030;-40
2021/05/26 00:47:50;;;;;;;7.32;3.35;;;;;;;9.68;81.74;101328.28;5134957;27;20082;-40
2021/05/26 00:50:18;;;;;;;10.25;3.80;;;;;;;9.65;81.91;101326.81;5135567;27;20050;-40
2021/05/26 00:52:44;;;;;;;9.65;3.33;;;;;;;9.63;80.99;101320.81;5134946;27;20381;-40
2021/05/26 00:55:16;;;;;;;11.50;3.75;;;;;;;9.64;81.44;101314.38;5135332;27;20027;-40
2021/05/26 00:57:41;;;;;;;9.10;3.22;;;;;;;9.63;81.07;101312.72;5135268;27;20035;-40
2021/05/26 01:00:10;;;;;;;10.80;4.20;;;;;;;9.62;81.78;101308.38;5136162;27;20019;-40
2021/05/26 01:02:36;;;;;;;11.30;4.18;;;;;;;9.59;81.13;101297.16;5135194;27;20027;-40
2021/05/26 01:05:04;;;;;;;10.93;3.58;;;;;;;9.59;81.38;101299.84;5135448;27;20172;-40
2021/05/26 01:07:29;;;;;;;11.00;3.78;;;;;;;9.63;81.90;101293.81;5134569;27;20023;-40
2021/05/26 01:09:56;;;;;;;7.73;3.83;;;;;;;9.67;81.24;101299.63;5135767;27;20034;-40
2021/05/26 01:12:21;;;;;;;12.73;3.95;;;;;;;9.67;81.03;101294.22;5134635;27;20042;-40
2021/05/26 01:14:47;;;;;;;8.87;4.20;;;;;;;9.64;81.63;101291.94;5135247;27;20019;-40
2021/05/26 01:17:12;;;;;;;9.27;3.90;;;;;;;9.60;81.13;101285.31;5134884;27;20045;-40
2021/05/26 01:19:38;;;;;;;11.37;3.43;;;;;;;9.66;81.60;101290.69;5135302;27;20026;-40
2021/05/26 01:22:06;;;;;;;14.43;4.63;;;;;;;9.66;81.25;101289.84;5134795;27;20023;-40
2021/05/26 01:24:31;;;;;;;9.52;3.70;;;;;;;9.65;81.56;101280.09;5135575;27;20336;-40
2021/05/26 01:26:57;;;;;;;9.67;3.83;;;;;;;9.66;81.04;101279.03;5135129;27;20110;-40
2021/05/26 01:29:22;;;;;;;12.87;4.67;;;;;;;9.67;80.62;101278.84;5135274;27;20517;-40
2021/05/26 01:31:47;;;;;;;13.70;4.33;;;;;;;9.68;81.36;101277.81;5134884;27;20027;-40
2021/05/26 01:34:13;;;;;;;11.43;4.57;;;;;;;9.64;81.51;101273.88;5134848;27;20027;-40
2021/05/26 01:36:41;;;;;;;11.50;4.43;;;;;;;9.66;81.22;101269.09;5134499;27;20027;-40
2021/05/26 01:39:06;;;;;;;17.58;4.55;;;;;;;9.66;81.43;101268.25;5135246;27;20273;-40
2021/05/26 01:41:32;;;;;;;11.55;4.20;;;;;;;9.61;81.47;101270.75;5134941;27;20027;-40
2021/05/26 01:43:57;;;;;;;12.63;4.10;;;;;;;9.63;81.26;101268.69;5134988;27;20055;-40
2021/05/26 01:46:24;;;;;;;11.50;4.45;;;;;;;9.65;81.31;101264.72;5134623;27;20030;-40
2021/05/26 01:48:49;;;;;;;;;;;;;;;9.75;81.04;101265.09;5134909;27;20023;-40
2021/05/26 01:51:16;;;;;;;13.70;4.47;;;;;;;9.64;81.88;101260.38;5134340;27;19911;-40
2021/05/26 01:53:42;;;;;;;14.20;4.30;;;;;;;9.64;81.37;101260.38;5134280;27;20382;-40
2021/05/26 01:56:14;;;;;;;;;;;;;;;9.73;80.95;101263.66;5135449;28;20085;-40
2021/05/26 01:58:40;;;;;;;12.68;5.72;;;;;;;9.62;80.55;101257.06;5134142;28;20455;-40
2021/05/26 02:01:05;;;;;;;13.13;5.03;;;;;;;9.63;80.97;101264.13;5134247;28;20066;-40
2021/05/26 02:03:30;;;;;;;13.73;5.03;;;;;;;9.63;80.87;101255.19;5134526;28;20058;-40
2021/05/26 02:05:56;;;;;;;12.30;5.40;;;;;;;9.59;81.47;101257.47;5134216;28;20030;-40
2021/05/26 02:08:21;;;;;;;12.10;4.90;;;;;;;9.61;81.11;101249.97;5134062;28;20034;-42
2021/05/26 02:13:30;;;;;;;11.18;5.15;;;;;;;9.62;80.90;101254.38;5134663;28;20043;-40
2021/05/26 02:15:55;;;;;;;14.33;5.23;;;;;;;9.58;80.89;101250.44;5134673;28;20119;-40
2021/05/26 02:18:21;;;;;;;11.30;4.60;;;;;;;9.58;80.94;101255.00;5134804;28;20035;-40
2021/05/26 02:20:46;;;;;;;17.07;5.07;;;;;;;9.59;80.51;101248.56;5134140;28;20031;-40
2021/05/26 02:23:13;;;;;;;16.00;5.27;;;;;;;9.60;79.95;101247.50;5134070;28;20415;-40
2021/05/26 02:25:38;;;;;;;13.45;5.47;;;;;;;9.51;80.99;101238.81;5134263;28;20085;-40
2021/05/26 02:28:04;;;;;;;12.37;4.57;;;;;;;9.57;81.16;101247.97;5133599;28;20035;-40
2021/05/26 02:30:29;;;;;;;16.05;4.63;;;;;;;9.50;81.24;101245.25;5134219;28;20031;-40
2021/05/26 02:32:54;;;;;;;12.67;4.37;;;;;;;9.51;79.78;101244.22;5134751;27;20462;-40
2021/05/26 02:35:20;;;;;;;14.23;4.73;;;;;;;9.51;80.52;101245.03;5133955;28;20106;-40
2021/05/26 02:37:45;;;;;;;11.60;4.53;;;;;;;9.47;80.61;101243.84;5133903;28;20027;-40
2021/05/26 02:40:11;;;;;;;16.92;4.20;;;;;;;9.48;80.08;101237.38;5134433;28;20463;-40
2021/05/26 02:42:37;;;;;;;14.73;3.67;;;;;;;9.49;79.44;101239.03;5137778;27;20144;-40
2021/05/26 02:45:04;;;;;;;12.00;4.00;;;;;;;9.45;80.65;101243.19;5137835;27;20256;-40
2021/05/26 02:47:29;;;;;;;13.55;5.10;;;;;;;9.42;79.56;101235.56;5137573;27;20031;-40
2021/05/26 02:49:54;;;;;;;12.07;3.63;;;;;;;9.42;79.58;101240.94;5138118;27;20035;-40
2021/05/26 02:52:20;;;;;;;15.53;3.93;;;;;;;9.42;80.02;101237.41;5137591;27;20023;-40
2021/05/26 02:54:45;;;;;;;8.50;3.03;;;;;;;9.40;79.91;101242.19;5137933;27;20383;-40
2021/05/26 02:57:10;;;;;;;12.77;3.90;;;;;;;9.37;79.70;101238.06;5137976;27;20039;-40
2021/05/26 02:59:36;;;;;;;9.47;3.60;;;;;;;9.36;80.16;101240.97;5137272;27;20035;-40
2021/05/26 03:02:01;;;;;;;10.10;2.87;;;;;;;9.32;80.76;101235.19;5137247;27;20027;-40
2021/05/26 03:04:26;;;;;;;9.40;3.53;;;;;;;9.32;80.15;101237.88;5137368;27;20015;-40
2021/05/26 03:06:52;;;;;;;8.40;3.07;;;;;;;9.34;79.66;101243.06;5137409;27;20031;-40
2021/05/26 03:09:17;;;;;;;10.20;3.77;;;;;;;9.32;80.03;101240.56;5137793;27;20019;-40
2021/05/26 03:11:43;;;;;;;10.77;3.20;;;;;;;9.30;79.18;101242.66;5137211;27;20031;-40
2021/05/26 03:14:08;;;;;;;7.95;3.13;;;;;;;9.28;80.96;101239.34;5137005;27;20019;-40
2021/05/26 03:16:33;;;;;;;12.30;3.60;;;;;;;9.26;80.56;101236.00;5137741;27;20515;-40
2021/05/26 03:18:59;;;;;;;12.63;3.17;;;;;;;9.24;80.39;101230.00;5137127;27;20042;-40
2021/05/26 03:21:24;;;;;;;9.87;2.90;;;;;;;9.22;79.83;101232.94;5137020;27;20282;-40
2021/05/26 03:23:49;;;;;;;7.27;2.73;;;;;;;9.22;80.37;101242.88;5137543;27;20467;-40
2021/05/26 03:26:15;;;;;;;9.17;3.43;;;;;;;9.20;80.42;101228.78;5136971;27;20031;-40
2021/05/26 03:28:40;;;;;;;10.10;2.97;;;;;;;9.20;80.26;101243.09;5136909;27;20054;-40
2021/05/26 03:31:06;;;;;;;8.97;3.30;;;;;;;9.20;80.80;101231.47;5136599;27;20076;-40
2021/05/26 03:33:31;;;;;;;6.85;2.75;;;;;;;9.16;80.09;101239.16;5136604;27;20105;-40
2021/05/26 03:35:56;;;;;;;9.60;2.90;;;;;;;9.16;80.19;101235.63;5137185;27;20028;-40
2021/05/26 03:38:22;;;;;;;9.07;3.30;;;;;;;9.12;80.32;101229.00;5136480;27;20063;-40
2021/05/26 03:40:47;;;;;;;8.40;2.73;;;;;;;9.19;80.25;101235.22;5137020;27;20030;-40
2021/05/26 03:43:13;;;;;;;8.83;2.83;;;;;;;9.17;80.40;101226.47;5137171;27;20076;-40
2021/05/26 03:45:38;;;;;;;10.23;2.83;;;;;;;9.18;79.29;101222.78;5136417;27;20084;-40
2021/05/26 03:48:04;;;;;;;7.13;2.22;;;;;;;9.15;79.70;101224.00;5136691;27;20030;-40
2021/05/26 03:50:30;;;;;;;6.78;2.60;;;;;;;9.13;80.06;101215.31;5136249;27;20027;-40
2021/05/26 03:52:56;;;;;;;8.82;2.22;;;;;;;9.11;80.11;101217.38;5134973;27;20030;-40
2021/05/26 03:55:23;;;;;;;9.40;3.28;;;;;;;9.08;79.93;101223.22;5136973;27;20023;-40
2021/05/26 03:57:49;;;;;;;10.32;2.55;;;;;;;9.09;80.33;101213.25;5136779;27;20050;-40
2021/05/26 04:00:20;;;;;;;7.85;2.58;;;;;;;9.02;79.70;101216.78;5136607;27;20477;-40
2021/05/26 04:02:46;;;;;;;7.93;2.53;;;;;;;9.08;80.30;101216.97;5136541;27;20079;-40
2021/05/26 04:05:12;;;;;;;7.32;2.70;;;;;;;9.06;80.12;101219.06;5137045;27;20087;-40
2021/05/26 04:07:39;;;;;;;7.03;2.22;;;;;;;9.11;79.80;101217.38;5135883;27;20023;-40
2021/05/26 04:10:04;;;;;;;;;;;;;;;9.21;79.18;101225.84;5136845;27;20386;-40
2021/05/26 04:12:30;;;;;;;6.85;2.30;;;;;;;9.14;79.67;101218.84;5135772;27;19908;-40
2021/05/26 04:14:55;;;;;;;8.00;2.65;;;;;;;9.06;80.71;101214.47;5136135;27;20038;-40
2021/05/26 04:17:21;;;;;;;6.27;2.20;;;;;;;9.12;79.92;101216.31;5136054;27;20462;-40
2021/05/26 04:19:47;;;;;;;7.45;2.75;;;;;;;9.13;81.08;101209.09;5136551;27;20047;-40
2021/05/26 04:22:12;;;;;;;6.20;2.73;;;;;;;9.11;80.42;101222.78;5135974;27;20471;-41
2021/05/26 04:24:37;;;;;;;8.13;2.67;;;;;;;9.10;79.94;101215.72;5135973;27;20029;-39
2021/05/26 04:27:03;;;;;;;8.37;2.77;;;;;;;9.07;79.94;101218.00;5135561;27;20059;-39
2021/05/26 04:29:28;;;;;;;9.13;2.90;;;;;;;9.05;80.66;101214.69;5136410;27;20026;-40
2021/05/26 04:31:57;;;;;;;8.47;2.70;;;;;;;8.99;80.79;101211.81;5136150;27;20023;-40
2021/05/26 04:34:23;;;;;;;7.85;2.75;;;;;;;8.99;80.91;101214.50;5135732;27;20485;-40
2021/05/26 04:36:48;;;;;;;8.93;2.65;;;;;;;8.98;80.66;101210.16;5135827;27;20420;-40
2021/05/26 04:39:13;;;;;;;9.33;3.33;;;;;;;8.96;80.50;101206.00;5135566;27;20027;-40
2021/05/26 04:41:39;;;;;;;9.03;3.03;;;;;;;8.96;81.22;101198.75;5135591;27;20023;-40
2021/05/26 04:44:04;;;;;;;10.57;2.77;;;;;;;8.98;80.99;101206.63;5135155;27;20023;-40
2021/05/26 04:46:30;;;;;;;9.00;3.17;;;;;;;8.98;80.92;101201.25;5135491;27;20076;-41
2021/05/26 04:48:55;;;;;;;7.73;3.00;;;;;;;9.06;80.47;101195.59;5135842;27;20451;-41
2021/05/26 04:51:20;;;;;;;8.83;2.83;;;;;;;9.12;80.46;101196.63;5135970;27;20057;-40
2021/05/26 04:53:46;;;;;;;8.70;2.73;;;;;;;9.27;80.08;101197.19;5135086;27;20035;-40
2021/05/26 04:56:11;;;;;;;9.03;2.77;;;;;;;9.27;79.95;101189.94;5135036;27;20031;-41
2021/05/26 04:58:36;;;;;;;7.70;2.90;;;;;;;9.40;79.49;101185.50;5135931;27;20054;-41
2021/05/26 05:01:02;;;;;;;10.27;3.13;;;;;;;9.46;79.21;101192.75;5135442;27;20525;-40
2021/05/26 05:03:27;;;;;;;8.02;2.90;;;;;;;9.51;79.71;101191.03;5135041;27;20457;-41
2021/05/26 05:05:53;;;;;;;8.60;3.17;;;;;;;9.52;78.76;101181.94;5135106;27;20035;-41
2021/05/26 05:08:18;;;;;;;6.50;3.07;;;;;;;9.51;79.30;101195.63;5134669;27;20072;-40
2021/05/26 05:10:43;;;;;;;9.23;3.17;;;;;;;9.53;78.79;101190.84;5135260;27;20023;-40
2021/05/26 05:13:09;;;;;;;7.00;2.90;;;;;;;9.52;78.69;101164.91;5135258;27;20110;-40
2021/05/26 05:15:34;;;;;;;11.60;3.10;;;;;;;9.62;78.65;101175.22;5134975;27;20051;-40
2021/05/26 05:17:59;;;;;;;5.37;2.57;;;;;;;9.69;78.00;101176.00;5134905;27;20031;-40
2021/05/26 05:20:25;;;;;;;8.80;3.00;;;;;;;9.74;77.70;101168.09;5134801;27;20027;-40
2021/05/26 05:22:52;;;;;;;7.72;2.58;;;;;;;9.81;77.96;101177.00;5134728;27;20079;-40
2021/05/26 05:25:17;;;;;;;5.72;2.42;;;;;;;9.83;78.32;101168.66;5134676;27;20035;-40
2021/05/26 05:27:44;;;;;;;6.32;2.63;;;;;;;9.88;76.88;101174.22;5134540;27;20045;-40
2021/05/26 05:30:10;;;;;;;5.55;2.72;;;;;;;9.92;76.96;101172.75;5134682;27;20026;-40
2021/05/26 05:32:36;;;;;;;5.70;2.55;;;;;;;9.95;76.32;101169.59;5134232;27;20030;-40
2021/05/26 05:35:01;;;;;;;8.67;2.87;;;;;;;9.98;77.59;101174.56;5134581;27;20027;-40
2021/05/26 05:37:26;;;;;;;8.63;3.15;;;;;;;9.99;76.52;101174.34;5134919;27;20034;-40
2021/05/26 05:39:52;;;;;;;6.27;2.73;;;;;;;10.00;76.63;101185.97;5135076;27;20035;-40
2021/05/26 05:42:18;;;;;;;5.72;2.83;;;;;;;9.90;76.21;101172.94;5134432;27;20027;-41
2021/05/26 05:44:44;;;;;;;;;;;;;;;10.00;76.71;101178.72;5134894;27;20102;-40
2021/05/26 05:47:10;;;;;;;6.28;2.88;;;;;;;9.83;76.81;101184.88;5134379;27;19914;-41
2021/05/26 05:49:35;;;;;;;10.55;3.30;;;;;;;9.87;76.63;101176.09;5134348;27;20114;-41
2021/05/26 05:52:00;;;;;;;4.23;2.97;;;;;;;10.05;75.88;101176.19;5134578;27;20094;-41
2021/05/26 05:54:26;;;;;;;6.73;2.80;;;;;;;10.24;75.59;101173.56;5134099;27;20562;-40
2021/05/26 05:56:51;;;;;;;7.00;3.20;;;;;;;10.31;75.14;101171.66;5134416;28;20043;-41
2021/05/26 05:59:16;;;;;;;5.73;3.50;;;;;;;10.27;75.04;101175.84;5134617;28;20090;-40
2021/05/26 06:01:42;;;;;;;7.97;3.63;;;;;;;10.24;75.26;101168.97;5134187;28;20050;-41
2021/05/26 06:04:07;;;;;;;8.10;3.87;;;;;;;10.26;75.37;101174.19;5134298;28;20053;-41
2021/05/26 06:06:32;;;;;;;5.43;3.20;;;;;;;10.13;74.42;101168.84;5134610;28;20484;-41
2021/05/26 06:08:57;;;;;;;7.13;3.97;;;;;;;10.05;74.93;101178.03;5134135;28;20457;-41
2021/05/26 06:11:23;;;;;;;9.30;3.53;;;;;;;9.99;75.44;101174.34;5134505;28;20064;-40
2021/05/26 06:13:49;;;;;;;5.93;3.30;;;;;;;9.93;75.49;101174.41;5134097;28;20106;-40
2021/05/26 06:16:15;;;;;;;;;;;;;;;10.10;75.74;101174.69;5135989;27;20023;-40
2021/05/26 06:18:40;;;;;;;8.60;3.80;;;;;;;10.15;75.14;101170.31;5138318;27;19933;-40
2021/05/26 06:21:05;;;;;;;7.17;3.57;;;;;;;10.25;74.85;101165.25;5139131;27;20492;-40
2021/05/26 06:23:31;;;;;;;7.57;3.80;;;;;;;10.37;74.81;101159.13;5138281;27;20035;-40
2021/05/26 06:25:56;;;;;;;5.78;3.75;;;;;;;10.39;74.00;101160.53;5138746;27;20023;-40
2021/05/26 06:28:22;;;;;;;6.27;3.53;;;;;;;10.42;74.63;101162.81;5138118;27;20092;-40
2021/05/26 06:30:47;;;;;;;6.37;3.10;;;;;;;10.41;74.76;101158.44;5138920;27;20068;-41
2021/05/26 06:33:13;;;;;;;7.38;3.20;;;;;;;10.46;74.84;101166.72;5138067;27;20035;-41
2021/05/26 06:35:38;;;;;;;6.80;3.53;;;;;;;10.46;74.48;101160.50;5138017;27;20107;-41
2021/05/26 06:38:03;;;;;;;5.53;3.23;;;;;;;10.51;74.48;101175.00;5138168;27;20118;-41
2021/05/26 06:40:29;;;;;;;6.77;4.33;;;;;;;10.47;74.52;101179.19;5138185;27;20101;-41
2021/05/26 06:42:54;;;;;;;9.13;4.63;;;;;;;10.45;74.17;101169.66;5137885;27;20476;-41
2021/05/26 06:45:19;;;;;;;6.13;3.97;;;;;;;10.41;74.68;101165.75;5137891;27;20309;-41
2021/05/26 06:47:45;;;;;;;8.47;5.37;;;;;;;10.46;75.01;101164.03;5137961;27;20485;-41
2021/05/26 06:50:12;;;;;;;9.07;5.67;;;;;;;10.44;74.69;101166.13;5138103;27;20023;-39
2021/05/26 06:52:37;;;;;;;9.73;5.72;;;;;;;10.45;74.63;101165.06;5137461;27;20489;-39
2021/05/26 06:55:03;;;;;;;9.30;5.80;;;;;;;10.46;75.83;101168.59;5138365;27;20031;-39
2021/05/26 06:57:28;;;;;;;10.02;5.82;;;;;;;10.47;75.76;101171.06;5137821;27;20051;-40
2021/05/26 06:59:54;;;;;;;8.50;6.13;;;;;;;10.42;75.26;101165.50;5137323;27;20117;-40
2021/05/26 07:02:19;;;;;;;8.73;6.87;;;;;;;10.41;74.96;101166.56;5137799;27;20027;-41
2021/05/26 07:04:44;;;;;;;11.93;8.50;;;;;;;10.39;74.53;101167.81;5137719;27;20371;-41
2021/05/26 07:07:10;;;;;;;9.60;7.37;;;;;;;10.51;74.56;101175.00;5137347;27;20105;-40
2021/05/26 07:09:35;;;;;;;10.17;7.83;;;;;;;10.59;75.37;101165.78;5137783;27;20106;-40
2021/05/26 07:12:01;;;;;;;7.97;6.73;;;;;;;10.68;74.43;101169.00;5136990;27;20056;-41
2021/05/26 07:14:26;;;;;;;9.53;7.63;;;;;;;10.84;74.46;101171.13;5138109;27;20474;-41
2021/05/26 07:16:51;;;;;;;9.93;7.50;;;;;;;11.03;73.35;101172.78;5137496;27;20380;-40
2021/05/26 07:19:16;;;;;;;11.37;8.13;;;;;;;11.16;73.85;101168.25;5136784;27;20048;-40
2021/05/26 07:21:42;;;;;;;9.70;7.97;;;;;;;11.18;72.39;101164.28;5137394;27;20035;-40
2021/05/26 07:24:08;;;;;;;8.57;7.75;;;;;;;11.23;73.45;101166.31;5137062;27;20023;-40
2021/05/26 07:26:33;;;;;;;13.68;8.65;;;;;;;11.29;73.43;101162.69;5137629;27;20034;-41
2021/05/26 07:28:59;;;;;;;10.07;8.90;;;;;;;11.36;72.51;101155.28;5136662;27;20027;-40
2021/05/26 07:31:24;;;;;;;8.70;7.82;;;;;;;11.37;72.22;101156.97;5137427;27;20020;-40
2021/05/26 07:33:50;;;;;;;10.73;8.00;;;;;;;11.35;72.55;101169.91;5136813;27;20030;-40
2021/05/26 07:36:15;;;;;;;9.57;8.57;;;;;;;11.31;71.75;101166.00;5136856;27;20019;-41
2021/05/26 07:38:40;;;;;;;9.67;8.13;;;;;;;11.35;71.42;101159.88;5136845;27;20027;-41
2021/05/26 07:41:07;;;;;;;11.17;9.00;;;;;;;11.34;71.70;101160.13;5136830;27;20027;-41
2021/05/26 07:43:33;;;;;;;10.85;8.90;;;;;;;11.46;72.50;101158.28;5136673;27;20355;-41
2021/05/26 07:46:00;;;;;;;10.98;9.23;;;;;;;11.43;71.24;101156.06;5136761;27;20058;-41
2021/05/26 07:48:25;;;;;;;10.07;9.07;;;;;;;11.64;72.31;101153.88;5136353;27;20074;-41
2021/05/26 07:50:51;;;;;;;11.23;9.53;;;;;;;11.68;71.92;101152.38;5136313;27;20126;-41
2021/05/26 07:53:16;;;;;;;11.57;8.80;;;;;;;11.73;70.64;101144.38;5136752;27;20304;-41
2021/05/26 07:55:41;;;;;;;12.87;8.77;;;;;;;11.87;71.81;101151.28;5136794;27;20762;-41
2021/05/26 07:58:07;;;;;;;10.33;8.37;;;;;;;11.95;70.87;101150.94;5136816;27;20053;-41
2021/05/26 08:00:32;;;;;;;10.43;8.47;;;;;;;11.96;69.94;101143.66;5136672;27;20724;-41
2021/05/26 08:02:57;;;;;;;10.17;8.93;;;;;;;11.99;71.98;101144.00;5136302;27;20451;-41
2021/05/26 08:05:24;;;;;;;10.53;7.97;;;;;;;12.08;70.63;101158.84;5136920;27;20115;-41
2021/05/26 08:07:50;;;;;;;9.60;7.55;;;;;;;12.11;69.30;101147.56;5136128;27;20035;-41
2021/05/26 08:10:16;;;;;;;8.65;7.38;;;;;;;12.22;69.78;101153.22;5136440;27;20027;-41
2021/05/26 08:12:42;;;;;;;7.72;7.03;;;;;;;12.20;69.81;101148.06;5136102;27;20024;-41
2021/05/26 08:15:08;;;;;;;11.23;7.50;;;;;;;12.28;68.93;101157.72;5136929;27;20030;-41
2021/05/26 08:17:34;;;;;;;8.20;7.10;;;;;;;12.26;68.03;101154.41;5135916;27;20027;-41
2021/05/26 08:20:02;;;;;;;8.88;7.63;;;;;;;12.28;69.64;101155.00;5136039;27;20079;-41
2021/05/26 08:22:28;;;;;;;11.55;7.78;;;;;;;12.17;68.96;101150.41;5135910;27;20027;-41
2021/05/26 08:24:53;;;;;;;;;;;;;;;12.33;69.61;101155.94;5136624;27;20035;-41
2021/05/26 08:27:18;;;;;;;8.90;7.77;;;;;;;12.20;69.72;101141.78;5135836;27;19907;-41
2021/05/26 08:29:44;;;;;;;8.50;7.70;;;;;;;12.13;69.25;101158.16;5136003;27;20272;-41
2021/05/26 08:32:09;;;;;;;10.23;7.40;;;;;;;12.11;69.38;101142.13;5136030;27;20034;-41
2021/05/26 08:34:34;;;;;;;9.57;7.23;;;;;;;12.09;69.12;101138.81;5135793;27;20027;-41
2021/05/26 08:37:00;;;;;;;10.03;7.40;;;;;;;12.06;69.03;101143.91;5135965;27;20023;-41
2021/05/26 08:39:25;;;;;;;7.67;6.60;;;;;;;12.07;69.29;101145.53;5135476;27;20023;-41
2021/05/26 08:41:53;;;;;;;11.90;7.73;;;;;;;12.07;69.42;101140.94;5135309;27;20087;-41
2021/05/26 08:44:19;;;;;;;9.55;7.88;;;;;;;12.05;69.83;101134.94;5135303;27;20038;-41
2021/05/26 08:46:50;;;;;;;8.77;7.97;;;;;;;12.08;69.68;101148.00;5135959;27;20328;-41
2021/05/26 08:49:17;;;;;;;10.45;7.53;;;;;;;11.98;69.29;101145.06;5135575;27;20031;-41
2021/05/26 08:51:42;;;;;;;8.80;6.75;;;;;;;11.92;69.30;101132.44;5135578;27;20035;-39
2021/05/26 08:54:08;;;;;;;11.05;6.93;;;;;;;11.96;69.63;101132.81;5135545;27;20115;-39
2021/05/26 08:56:33;;;;;;;8.80;6.90;;;;;;;12.04;69.84;101129.75;5134925;27;20067;-42
2021/05/26 08:58:59;;;;;;;13.70;7.87;;;;;;;12.14;69.33;101134.59;5135168;27;20074;-40
2021/05/26 09:01:24;;;;;;;8.60;7.40;;;;;;;12.18;69.93;101127.63;5134766;27;20023;-40
2021/05/26 09:03:50;;;;;;;11.43;7.87;;;;;;;12.21;68.84;101128.00;5135402;27;20023;-40
2021/05/26 09:06:16;;;;;;;8.15;7.35;;;;;;;12.13;69.65;101131.06;5135037;27;20083;-40
2021/05/26 09:08:46;;;;;;;10.10;8.03;;;;;;;12.14;68.46;101131.88;5134896;27;20031;-40
2021/05/26 09:11:12;;;;;;;9.82;8.05;;;;;;;12.37;69.39;101130.00;5135192;27;20382;-41
2021/05/26 09:13:39;;;;;;;14.13;8.63;;;;;;;12.71;68.39;101118.53;5134589;27;20027;-41
2021/05/26 09:16:10;;;;;;;11.48;7.97;;;;;;;12.86;66.97;101127.00;5135386;27;20080;-40
2021/05/26 09:19:13;;;;;;;11.20;7.45;;;;;;;13.12;67.03;101115.59;5134723;27;20031;-40
2021/05/26 09:21:43;;;;;;;11.90;8.82;;;;;;;13.30;65.81;101121.97;5112370;28;20028;-40
2021/05/26 09:24:29;;;;;;;11.88;7.93;;;;;;;13.39;65.55;101106.91;5111773;28;20165;-41
2021/05/26 09:27:01;;;;;;;11.85;7.25;;;;;;;13.57;66.01;101111.34;5112173;28;20044;-41
2021/05/26 09:29:36;;;;;;;11.23;8.55;;;;;;;13.63;65.09;101100.31;5111825;28;20103;-41
2021/05/26 09:32:33;;;;;;;11.80;8.30;;;;;;;13.77;65.50;101103.53;5111858;28;20119;-40
2021/05/26 09:34:59;;;;;;;9.13;7.40;;;;;;;14.01;63.76;101101.50;5031167;28;20549;-41
2021/05/26 09:37:27;;;;;;;;;;;;;;;14.40;65.00;101099.63;5031408;28;20032;-41
2021/05/26 09:40:10;;;;;;;8.73;7.70;;;;;;;14.19;64.01;101097.66;5031182;28;19909;-41
2021/05/26 09:42:46;;;;;;;9.27;7.80;;;;;;;14.47;62.95;101104.06;5030927;28;20044;-40
2021/05/26 09:45:27;;;;;;;8.63;7.75;;;;;;;14.74;62.47;101098.72;5030880;28;20516;-40
2021/05/26 09:47:54;;;;;;;10.90;7.72;;;;;;;14.99;61.58;101093.63;5031157;28;20048;-40
2021/05/26 09:50:19;;;;;;;8.48;7.68;;;;;;;14.79;59.89;101099.66;5030955;28;20053;-40
2021/05/26 09:53:25;;;;;;;9.93;8.17;;;;;;;14.54;62.48;101093.84;5056910;28;20124;-40
2021/05/26 09:55:51;;;;;;;8.73;7.43;;;;;;;14.52;62.88;101094.09;5071136;28;20032;-40
2021/05/26 09:58:17;;;;;;;9.27;7.60;;;;;;;14.65;60.81;101096.47;5071116;28;20048;-40
2021/05/26 10:00:47;;;;;;;10.05;7.43;;;;;;;14.84;60.30;101093.44;5071242;28;20430;-40
2021/05/26 10:03:13;;;;;;;8.93;7.13;;;;;;;14.91;60.18;101091.34;5070661;28;20040;-40
2021/05/26 10:05:39;;;;;;;10.55;6.03;;;;;;;15.00;59.57;101089.81;5070940;28;20040;-40
2021/05/26 10:08:07;;;;;;;7.78;6.00;;;;;;;14.95;57.58;101092.50;5070685;28;20436;-40
2021/05/26 10:10:33;;;;;;;6.65;4.88;;;;;;;15.09;58.01;101088.31;5082498;28;20035;-41
2021/05/26 10:13:02;;;;;;;8.70;5.45;;;;;;;15.01;58.45;101083.28;5134187;28;20096;-40
2021/05/26 10:15:29;;;;;;;7.18;5.20;;;;;;;14.86;59.48;101096.72;5134315;28;20062;-40
2021/05/26 10:17:56;;;;;;;6.93;4.38;;;;;;;14.59;56.25;101089.31;5133965;27;20035;-41
2021/05/26 10:20:24;;;;;;;7.40;3.95;;;;;;;14.49;58.62;101080.16;5134814;28;20027;-40
2021/05/26 10:22:52;;;;;;;9.30;4.82;;;;;;;14.47;58.50;101091.28;5133945;28;20023;-41
2021/05/26 10:25:19;;;;;;;7.00;4.70;;;;;;;14.42;60.34;101092.03;5134837;28;20481;-41
2021/05/26 10:27:56;;;;;;;9.10;5.78;;;;;;;14.50;59.63;101088.09;5132859;28;20027;-40
2021/05/26 10:30:25;;;;;;;9.10;5.32;;;;;;;14.71;58.71;101082.94;5134871;27;20027;-40
2021/05/26 10:32:59;;;;;;;6.03;4.35;;;;;;;14.88;58.29;101092.69;5134434;28;20054;-41
2021/05/26 10:35:26;;;;;;;5.60;3.70;;;;;;;14.87;56.07;101095.66;5134748;28;20356;-41
2021/05/26 10:38:02;;;;;;;4.93;3.03;;;;;;;14.93;56.29;101089.19;5134228;28;20459;-41
2021/05/26 10:40:34;;;;;;;6.65;3.25;;;;;;;14.98;56.29;101083.78;5133933;28;20033;-41
2021/05/26 10:43:23;;;;;;;6.10;3.00;;;;;;;15.07;56.08;101085.00;5134378;28;20108;-41
2021/05/26 10:45:50;;;;;;;4.38;2.55;;;;;;;15.35;55.77;101075.75;5134370;28;20027;-40
2021/05/26 10:48:42;;;;;;;7.03;2.80;;;;;;;15.67;55.86;101078.56;5134109;28;20023;-39
2021/05/26 10:51:09;;;;;;;6.15;3.20;;;;;;;15.97;54.33;101085.34;5133969;28;20065;-40
2021/05/26 10:53:40;;;;;;;6.18;3.38;;;;;;;15.83;54.41;101075.97;5133747;27;20070;-40
2021/05/26 10:56:06;;;;;;;5.72;3.40;;;;;;;15.64;54.98;101080.97;5134020;28;20028;-40
2021/05/26 10:58:44;;;;;;;6.80;3.72;;;;;;;15.44;55.88;101093.31;5133803;28;20092;-40
2021/05/26 11:01:11;;;;;;;8.20;3.90;;;;;;;15.15;55.14;101091.91;5133953;28;20511;-40
2021/05/26 11:03:41;;;;;;;6.95;3.70;;;;;;;15.06;57.06;101099.69;5136807;27;20231;-40
2021/05/26 11:06:18;;;;;;;5.47;2.90;;;;;;;14.99;55.66;101100.97;5137714;27;20394;-40
2021/05/26 11:09:02;;;;;;;5.07;2.50;;;;;;;14.91;55.39;101115.84;5136994;27;20030;-40
2021/05/26 11:11:27;;;;;;;3.33;1.40;;;;;;;14.82;55.69;101106.47;5137657;27;20016;-40
2021/05/26 11:14:05;;;;;;;3.45;1.30;;;;;;;14.74;55.16;101106.91;5138055;27;20075;-40
2021/05/26 11:16:40;;;;;;;3.90;1.40;;;;;;;14.56;52.96;101110.75;5137790;27;20432;-40
2021/05/26 11:19:13;;;;;;;2.20;0.90;;;;;;;14.34;50.21;101124.28;5137159;27;20117;-40
2021/05/26 11:21:40;;;;;;;2.13;0.60;;;;;;;14.15;51.18;101138.16;5136888;27;20020;-40
2021/05/26 11:24:06;;;;;;;1.52;0.70;;;;;;;13.84;51.77;101139.53;5137096;27;20028;-40
2021/05/26 11:26:33;;;;;;;2.50;0.85;;;;;;;13.68;53.06;101144.94;5136102;27;20054;-40
2021/05/26 11:28:59;;;;;;;1.45;0.52;;;;;;;13.53;54.09;101150.91;5137730;27;20058;-40
2021/05/26 11:31:24;;;;;;;2.00;0.70;;;;;;;13.32;54.30;101142.38;5137355;27;20462;-40